sensor_id;sensor_type;location;lat;lon;timestamp;pressure;altitude;pressure_sealevel;temperature;humidity
12951;BME280;6540;50.858;7.232;2023-09-18T00:01:32;51572.13;;;-142.34;30.26
12951;BME280;6540;50.858;7.232;2023-09-18T00:03:57;51568.09;;;-142.34;30.06
12951;BME280;6540;50.858;7.232;2023-09-18T00:06:23;51600.38;;;-142.34;29.92
12951;BME280;6540;50.858;7.232;2023-09-18T00:08:50;51588.28;;;-142.34;29.84
12951;BME280;6540;50.858;7.232;2023-09-18T00:11:16;51566.09;;;-142.34;29.70
12951;BME280;6540;50.858;7.232;2023-09-18T00:13:41;51604.41;;;-142.34;29.92
12951;BME280;6540;50.858;7.232;2023-09-18T00:16:07;51620.53;;;-142.34;29.66
12951;BME280;6540;50.858;7.232;2023-09-18T00:18:32;51590.28;;;-142.34;29.97
12951;BME280;6540;50.858;7.232;2023-09-18T00:20:58;51584.22;;;-142.34;30.24
12951;BME280;6540;50.858;7.232;2023-09-18T00:23:23;51578.19;;;-142.34;29.84
12951;BME280;6540;50.858;7.232;2023-09-18T00:25:48;51588.28;;;-142.34;30.34
12951;BME280;6540;50.858;7.232;2023-09-18T00:28:14;51638.69;;;-142.34;30.82
12951;BME280;6540;50.858;7.232;2023-09-18T00:30:42;51624.56;;;-142.34;30.74
12951;BME280;6540;50.858;7.232;2023-09-18T00:33:11;51634.66;;;-142.34;30.96
12951;BME280;6540;50.858;7.232;2023-09-18T00:35:36;51628.63;;;-142.34;30.76
12951;BME280;6540;50.858;7.232;2023-09-18T00:38:05;51572.13;;;-142.34;29.90
12951;BME280;6540;50.858;7.232;2023-09-18T00:40:35;51574.16;;;-142.34;29.94
12951;BME280;6540;50.858;7.232;2023-09-18T00:43:00;51580.19;;;-142.34;29.81
12951;BME280;6540;50.858;7.232;2023-09-18T00:45:26;51600.38;;;-142.34;29.84
12951;BME280;6540;50.858;7.232;2023-09-18T00:47:51;51592.31;;;-142.34;29.59
12951;BME280;6540;50.858;7.232;2023-09-18T00:50:17;51602.38;;;-142.34;30.51
12951;BME280;6540;50.858;7.232;2023-09-18T00:52:43;51624.56;;;-142.34;30.41
12951;BME280;6540;50.858;7.232;2023-09-18T00:55:08;51622.56;;;-142.34;30.50
12951;BME280;6540;50.858;7.232;2023-09-18T00:57:34;51590.28;;;-142.34;30.36
12951;BME280;6540;50.858;7.232;2023-09-18T01:00:00;51588.28;;;-142.34;30.03
12951;BME280;6540;50.858;7.232;2023-09-18T01:02:26;51558.00;;;-142.34;29.77
12951;BME280;6540;50.858;7.232;2023-09-18T01:04:51;51596.34;;;-142.34;29.60
12951;BME280;6540;50.858;7.232;2023-09-18T01:07:17;51618.53;;;-142.34;30.33
12951;BME280;6540;50.858;7.232;2023-09-18T01:09:43;51606.44;;;-142.34;29.95
12951;BME280;6540;50.858;7.232;2023-09-18T01:12:23;51580.19;;;-142.34;29.48
12951;BME280;6540;50.858;7.232;2023-09-18T01:15:19;51600.38;;;-142.34;29.14
12951;BME280;6540;50.858;7.232;2023-09-18T01:17:46;51608.44;;;-142.34;30.10
12951;BME280;6540;50.858;7.232;2023-09-18T01:20:12;51608.44;;;-142.34;29.61
12951;BME280;6540;50.858;7.232;2023-09-18T01:22:38;51628.63;;;-142.34;30.67
12951;BME280;6540;50.858;7.232;2023-09-18T01:25:03;51572.13;;;-142.34;30.57
12951;BME280;6540;50.858;7.232;2023-09-18T01:27:29;51644.75;;;-142.34;30.67
12951;BME280;6540;50.858;7.232;2023-09-18T01:29:54;51632.66;;;-142.34;30.07
12951;BME280;6540;50.858;7.232;2023-09-18T01:32:21;51622.56;;;-142.34;31.02
12951;BME280;6540;50.858;7.232;2023-09-18T01:34:52;51668.97;;;-142.34;31.46
12951;BME280;6540;50.858;7.232;2023-09-18T01:37:21;51668.97;;;-142.34;31.31
12951;BME280;6540;50.858;7.232;2023-09-18T01:39:49;51650.81;;;-142.34;30.82
12951;BME280;6540;50.858;7.232;2023-09-18T01:42:15;51622.56;;;-142.34;31.05
12951;BME280;6540;50.858;7.232;2023-09-18T01:44:40;51642.72;;;-142.34;30.94
12951;BME280;6540;50.858;7.232;2023-09-18T01:47:09;51632.66;;;-142.34;30.86
12951;BME280;6540;50.858;7.232;2023-09-18T01:49:36;51616.50;;;-142.34;30.22
12951;BME280;6540;50.858;7.232;2023-09-18T01:52:03;51660.88;;;-142.34;32.35
12951;BME280;6540;50.858;7.232;2023-09-18T01:54:29;51658.88;;;-142.34;31.26
12951;BME280;6540;50.858;7.232;2023-09-18T01:56:54;51666.94;;;-142.34;30.93
12951;BME280;6540;50.858;7.232;2023-09-18T01:59:20;51620.53;;;-142.34;30.53
12951;BME280;6540;50.858;7.232;2023-09-18T02:01:47;51634.66;;;-142.34;31.11
12951;BME280;6540;50.858;7.232;2023-09-18T02:04:12;51630.63;;;-142.34;30.50
12951;BME280;6540;50.858;7.232;2023-09-18T02:06:38;51628.63;;;-142.34;30.81
12951;BME280;6540;50.858;7.232;2023-09-18T02:09:03;51588.28;;;-142.34;30.17
12951;BME280;6540;50.858;7.232;2023-09-18T02:11:29;51604.41;;;-142.34;30.27
12951;BME280;6540;50.858;7.232;2023-09-18T02:13:54;51600.38;;;-142.34;29.78
12951;BME280;6540;50.858;7.232;2023-09-18T02:16:19;51592.31;;;-142.34;30.25
12951;BME280;6540;50.858;7.232;2023-09-18T02:18:49;51632.66;;;-142.34;31.28
12951;BME280;6540;50.858;7.232;2023-09-18T02:21:21;51588.28;;;-142.34;30.24
12951;BME280;6540;50.858;7.232;2023-09-18T02:23:50;51636.69;;;-142.34;30.52
12951;BME280;6540;50.858;7.232;2023-09-18T02:26:19;51630.63;;;-142.34;31.04
12951;BME280;6540;50.858;7.232;2023-09-18T02:28:45;51610.47;;;-142.34;31.09
12951;BME280;6540;50.858;7.232;2023-09-18T02:31:10;51576.16;;;-142.34;29.76
12951;BME280;6540;50.858;7.232;2023-09-18T02:33:39;51584.22;;;-142.34;30.47
12951;BME280;6540;50.858;7.232;2023-09-18T02:36:05;51614.50;;;-142.34;30.76
12951;BME280;6540;50.858;7.232;2023-09-18T02:38:32;51598.34;;;-142.34;30.07
12951;BME280;6540;50.858;7.232;2023-09-18T02:40:58;51580.19;;;-142.34;31.01
12951;BME280;6540;50.858;7.232;2023-09-18T02:43:24;51584.22;;;-142.34;30.00
12951;BME280;6540;50.858;7.232;2023-09-18T02:45:50;51578.19;;;-142.34;30.17
12951;BME280;6540;50.858;7.232;2023-09-18T02:48:15;51584.22;;;-142.34;30.33
12951;BME280;6540;50.858;7.232;2023-09-18T02:50:41;51592.31;;;-142.34;30.25
12951;BME280;6540;50.858;7.232;2023-09-18T02:53:07;51539.84;;;-142.34;29.91
12951;BME280;6540;50.858;7.232;2023-09-18T02:55:34;51582.22;;;-142.34;30.70
12951;BME280;6540;50.858;7.232;2023-09-18T02:57:59;51560.03;;;-142.34;30.28
12951;BME280;6540;50.858;7.232;2023-09-18T03:00:25;51566.09;;;-142.34;30.13
12951;BME280;6540;50.858;7.232;2023-09-18T03:02:50;51592.31;;;-142.34;31.18
12951;BME280;6540;50.858;7.232;2023-09-18T03:05:15;51580.19;;;-142.34;30.65
12951;BME280;6540;50.858;7.232;2023-09-18T03:07:40;51556.00;;;-142.34;31.01
12951;BME280;6540;50.858;7.232;2023-09-18T03:10:06;51556.00;;;-142.34;30.77
12951;BME280;6540;50.858;7.232;2023-09-18T03:12:32;51570.13;;;-142.34;30.46
12951;BME280;6540;50.858;7.232;2023-09-18T03:14:58;51588.28;;;-142.34;30.55
12951;BME280;6540;50.858;7.232;2023-09-18T03:17:24;51584.22;;;-142.34;31.48
12951;BME280;6540;50.858;7.232;2023-09-18T03:19:49;51596.34;;;-142.34;31.38
12951;BME280;6540;50.858;7.232;2023-09-18T03:22:15;51592.31;;;-142.34;31.50
12951;BME280;6540;50.858;7.232;2023-09-18T03:24:40;51560.03;;;-142.34;30.53
12951;BME280;6540;50.858;7.232;2023-09-18T03:27:06;51628.63;;;-142.34;31.90
12951;BME280;6540;50.858;7.232;2023-09-18T03:29:31;51572.13;;;-142.34;30.35
12951;BME280;6540;50.858;7.232;2023-09-18T03:31:56;51584.22;;;-142.34;31.23
12951;BME280;6540;50.858;7.232;2023-09-18T03:34:24;51572.13;;;-142.34;30.88
12951;BME280;6540;50.858;7.232;2023-09-18T03:36:52;51592.31;;;-142.34;30.29
12951;BME280;6540;50.858;7.232;2023-09-18T03:39:17;51553.97;;;-142.34;30.17
12951;BME280;6540;50.858;7.232;2023-09-18T03:41:43;51549.94;;;-142.34;29.92
12951;BME280;6540;50.858;7.232;2023-09-18T03:44:08;51574.16;;;-142.34;30.93
12951;BME280;6540;50.858;7.232;2023-09-18T03:46:35;51570.13;;;-142.34;30.15
12951;BME280;6540;50.858;7.232;2023-09-18T03:49:01;51539.84;;;-142.34;30.53
12951;BME280;6540;50.858;7.232;2023-09-18T03:51:26;51572.13;;;-142.34;30.03
12951;BME280;6540;50.858;7.232;2023-09-18T03:53:52;51588.28;;;-142.34;30.48
12951;BME280;6540;50.858;7.232;2023-09-18T03:56:17;51564.06;;;-142.34;30.45
12951;BME280;6540;50.858;7.232;2023-09-18T03:58:42;51566.09;;;-142.34;30.71
12951;BME280;6540;50.858;7.232;2023-09-18T04:01:10;51531.78;;;-142.34;29.95
12951;BME280;6540;50.858;7.232;2023-09-18T04:03:35;51558.00;;;-142.34;30.65
12951;BME280;6540;50.858;7.232;2023-09-18T04:06:01;51584.22;;;-142.34;30.46
12951;BME280;6540;50.858;7.232;2023-09-18T04:08:26;51558.00;;;-142.34;30.36
12951;BME280;6540;50.858;7.232;2023-09-18T04:10:52;51584.22;;;-142.34;30.24
12951;BME280;6540;50.858;7.232;2023-09-18T04:13:20;51592.31;;;-142.34;30.82
12951;BME280;6540;50.858;7.232;2023-09-18T04:15:46;51582.22;;;-142.34;30.24
12951;BME280;6540;50.858;7.232;2023-09-18T04:18:11;51596.34;;;-142.34;30.05
12951;BME280;6540;50.858;7.232;2023-09-18T04:20:39;51527.75;;;-142.34;29.68
12951;BME280;6540;50.858;7.232;2023-09-18T04:23:25;51535.81;;;-142.34;29.67
12951;BME280;6540;50.858;7.232;2023-09-18T04:25:52;51570.13;;;-142.34;30.25
12951;BME280;6540;50.858;7.232;2023-09-18T04:28:19;51572.13;;;-142.34;30.22
12951;BME280;6540;50.858;7.232;2023-09-18T04:33:28;51553.97;;;-142.34;30.35
12951;BME280;6540;50.858;7.232;2023-09-18T04:35:54;51564.06;;;-142.34;30.07
12951;BME280;6540;50.858;7.232;2023-09-18T04:38:19;51592.31;;;-142.34;30.78
12951;BME280;6540;50.858;7.232;2023-09-18T04:40:45;51608.44;;;-142.34;31.26
12951;BME280;6540;50.858;7.232;2023-09-18T04:43:11;51568.09;;;-142.34;31.01
12951;BME280;6540;50.858;7.232;2023-09-18T04:45:36;51594.31;;;-142.34;30.61
12951;BME280;6540;50.858;7.232;2023-09-18T04:48:02;51622.56;;;-142.34;31.85
12951;BME280;6540;50.858;7.232;2023-09-18T04:50:31;51640.72;;;-142.34;31.04
12951;BME280;6540;50.858;7.232;2023-09-18T04:52:59;51586.25;;;-142.34;30.34
12951;BME280;6540;50.858;7.232;2023-09-18T04:55:24;51584.22;;;-142.34;30.38
12951;BME280;6540;50.858;7.232;2023-09-18T04:57:49;51608.44;;;-142.34;31.01
12951;BME280;6540;50.858;7.232;2023-09-18T05:00:15;51588.28;;;-142.34;31.48
12951;BME280;6540;50.858;7.232;2023-09-18T05:02:41;51588.28;;;-142.34;30.76
12951;BME280;6540;50.858;7.232;2023-09-18T05:05:08;51558.00;;;-142.34;29.86
12951;BME280;6540;50.858;7.232;2023-09-18T05:07:34;51568.09;;;-142.34;30.50
12951;BME280;6540;50.858;7.232;2023-09-18T05:09:59;51598.34;;;-142.34;31.21
12951;BME280;6540;50.858;7.232;2023-09-18T05:12:25;51556.00;;;-142.34;30.00
12951;BME280;6540;50.858;7.232;2023-09-18T05:14:50;51584.22;;;-142.34;30.94
12951;BME280;6540;50.858;7.232;2023-09-18T05:17:16;51570.13;;;-142.34;30.12
12951;BME280;6540;50.858;7.232;2023-09-18T05:19:45;51616.50;;;-142.34;29.92
12951;BME280;6540;50.858;7.232;2023-09-18T05:22:10;51568.09;;;-142.34;30.03
12951;BME280;6540;50.858;7.232;2023-09-18T05:24:38;51564.06;;;-142.34;30.30
12951;BME280;6540;50.858;7.232;2023-09-18T05:27:03;51576.16;;;-142.34;30.14
12951;BME280;6540;50.858;7.232;2023-09-18T05:29:31;51568.09;;;-142.34;29.95
12951;BME280;6540;50.858;7.232;2023-09-18T05:31:56;51602.38;;;-142.34;30.52
12951;BME280;6540;50.858;7.232;2023-09-18T05:34:22;51604.41;;;-142.34;30.34
12951;BME280;6540;50.858;7.232;2023-09-18T05:36:47;51588.28;;;-142.34;30.38
12951;BME280;6540;50.858;7.232;2023-09-18T05:39:13;51592.31;;;-142.34;30.84
12951;BME280;6540;50.858;7.232;2023-09-18T05:41:39;51570.13;;;-142.34;30.65
12951;BME280;6540;50.858;7.232;2023-09-18T05:44:05;51568.09;;;-142.34;30.41
12951;BME280;6540;50.858;7.232;2023-09-18T05:46:34;51570.13;;;-142.34;30.14
12951;BME280;6540;50.858;7.232;2023-09-18T05:49:00;51568.09;;;-142.34;29.79
12951;BME280;6540;50.858;7.232;2023-09-18T05:51:25;51596.34;;;-142.34;30.21
12951;BME280;6540;50.858;7.232;2023-09-18T05:53:51;51590.28;;;-142.34;30.89
12951;BME280;6540;50.858;7.232;2023-09-18T05:56:16;51568.09;;;-142.34;29.87
12951;BME280;6540;50.858;7.232;2023-09-18T05:58:43;51556.00;;;-142.34;29.97
12951;BME280;6540;50.858;7.232;2023-09-18T06:01:08;51556.00;;;-142.34;29.87
12951;BME280;6540;50.858;7.232;2023-09-18T06:03:36;51547.94;;;-142.34;29.78
12951;BME280;6540;50.858;7.232;2023-09-18T06:06:03;51547.94;;;-142.34;30.38
12951;BME280;6540;50.858;7.232;2023-09-18T06:08:29;51560.03;;;-142.34;30.17
12951;BME280;6540;50.858;7.232;2023-09-18T06:10:58;51600.38;;;-142.34;30.69
12951;BME280;6540;50.858;7.232;2023-09-18T06:13:24;51580.19;;;-142.34;31.18
12951;BME280;6540;50.858;7.232;2023-09-18T06:15:51;51596.34;;;-142.34;31.45
12951;BME280;6540;50.858;7.232;2023-09-18T06:18:18;51624.56;;;-142.34;31.79
12951;BME280;6540;50.858;7.232;2023-09-18T06:20:46;51598.34;;;-142.34;30.27
12951;BME280;6540;50.858;7.232;2023-09-18T06:23:11;51551.97;;;-142.34;30.26
12951;BME280;6540;50.858;7.232;2023-09-18T06:25:36;51553.97;;;-142.34;30.32
12951;BME280;6540;50.858;7.232;2023-09-18T06:28:03;51543.88;;;-142.34;30.21
12951;BME280;6540;50.858;7.232;2023-09-18T06:30:29;51578.19;;;-142.34;30.05
12951;BME280;6540;50.858;7.232;2023-09-18T06:32:56;51590.28;;;-142.34;31.09
12951;BME280;6540;50.858;7.232;2023-09-18T06:35:21;51558.00;;;-142.34;30.32
12951;BME280;6540;50.858;7.232;2023-09-18T06:37:48;51616.50;;;-142.34;31.03
12951;BME280;6540;50.858;7.232;2023-09-18T06:40:13;51578.19;;;-142.34;30.04
12951;BME280;6540;50.858;7.232;2023-09-18T06:42:39;51568.09;;;-142.34;30.19
12951;BME280;6540;50.858;7.232;2023-09-18T06:45:05;51588.28;;;-142.34;30.59
12951;BME280;6540;50.858;7.232;2023-09-18T06:47:34;51547.94;;;-142.34;29.49
12951;BME280;6540;50.858;7.232;2023-09-18T06:50:00;51543.88;;;-142.34;29.68
12951;BME280;6540;50.858;7.232;2023-09-18T06:52:26;51574.16;;;-142.34;29.75
12951;BME280;6540;50.858;7.232;2023-09-18T06:54:53;51531.78;;;-142.34;29.65
12951;BME280;6540;50.858;7.232;2023-09-18T06:57:18;51600.38;;;-142.34;30.50
12951;BME280;6540;50.858;7.232;2023-09-18T06:59:51;51574.16;;;-142.34;30.05
12951;BME280;6540;50.858;7.232;2023-09-18T07:02:17;51592.31;;;-142.34;30.07
12951;BME280;6540;50.858;7.232;2023-09-18T07:04:42;51588.28;;;-142.34;30.01
12951;BME280;6540;50.858;7.232;2023-09-18T07:07:12;51580.19;;;-142.34;29.78
12951;BME280;6540;50.858;7.232;2023-09-18T07:09:38;51570.13;;;-142.34;29.92
12951;BME280;6540;50.858;7.232;2023-09-18T07:12:04;51527.75;;;-142.34;29.14
12951;BME280;6540;50.858;7.232;2023-09-18T07:14:29;51564.06;;;-142.34;28.90
12951;BME280;6540;50.858;7.232;2023-09-18T07:16:56;51547.94;;;-142.34;29.26
12951;BME280;6540;50.858;7.232;2023-09-18T07:19:21;51558.00;;;-142.34;29.66
12951;BME280;6540;50.858;7.232;2023-09-18T07:21:47;51551.97;;;-142.34;29.58
12951;BME280;6540;50.858;7.232;2023-09-18T07:24:12;51602.38;;;-142.34;30.07
12951;BME280;6540;50.858;7.232;2023-09-18T07:26:47;51572.13;;;-142.34;29.83
12951;BME280;6540;50.858;7.232;2023-09-18T07:29:16;51551.97;;;-142.34;29.13
12951;BME280;6540;50.858;7.232;2023-09-18T07:31:43;51503.53;;;-142.34;29.10
12951;BME280;6540;50.858;7.232;2023-09-18T07:34:11;51533.81;;;-142.34;28.68
12951;BME280;6540;50.858;7.232;2023-09-18T07:36:37;51551.97;;;-142.34;29.11
12951;BME280;6540;50.858;7.232;2023-09-18T07:39:03;51568.09;;;-142.34;29.75
12951;BME280;6540;50.858;7.232;2023-09-18T07:41:34;51580.19;;;-142.34;29.67
12951;BME280;6540;50.858;7.232;2023-09-18T07:44:11;51543.88;;;-142.34;29.09
12951;BME280;6540;50.858;7.232;2023-09-18T07:46:57;51537.84;;;-142.34;29.05
12951;BME280;6540;50.858;7.232;2023-09-18T07:49:25;51556.00;;;-142.34;29.59
12951;BME280;6540;50.858;7.232;2023-09-18T07:52:20;51543.88;;;-142.34;29.17
12951;BME280;6540;50.858;7.232;2023-09-18T07:55:07;51594.31;;;-142.34;30.07
12951;BME280;6540;50.858;7.232;2023-09-18T07:57:51;51596.34;;;-142.34;29.82
12951;BME280;6540;50.858;7.232;2023-09-18T08:00:40;51551.97;;;-142.34;29.13
12951;BME280;6540;50.858;7.232;2023-09-18T08:03:14;51584.22;;;-142.34;30.41
12951;BME280;6540;50.858;7.232;2023-09-18T08:05:49;51640.72;;;-142.34;30.24
12951;BME280;6540;50.858;7.232;2023-09-18T08:08:21;51580.19;;;-142.34;29.71
12951;BME280;6540;50.858;7.232;2023-09-18T08:10:49;51560.03;;;-142.34;28.68
12951;BME280;6540;50.858;7.232;2023-09-18T08:13:25;51564.06;;;-142.34;29.99
12951;BME280;6540;50.858;7.232;2023-09-18T08:16:01;51547.94;;;-142.34;29.13
12951;BME280;6540;50.858;7.232;2023-09-18T08:18:30;51517.66;;;-142.34;29.12
12951;BME280;6540;50.858;7.232;2023-09-18T08:20:58;51596.34;;;-142.34;28.90
12951;BME280;6540;50.858;7.232;2023-09-18T08:23:25;51556.00;;;-142.34;29.53
12951;BME280;6540;50.858;7.232;2023-09-18T08:25:53;51612.47;;;-142.34;29.53
12951;BME280;6540;50.858;7.232;2023-09-18T08:28:32;51533.81;;;-142.34;29.27
12951;BME280;6540;50.858;7.232;2023-09-18T08:31:01;51622.56;;;-142.34;30.39
12951;BME280;6540;50.858;7.232;2023-09-18T08:33:29;51596.34;;;-142.34;30.48
12951;BME280;6540;50.858;7.232;2023-09-18T08:36:16;51539.84;;;-142.34;28.39
12951;BME280;6540;50.858;7.232;2023-09-18T08:38:54;51566.09;;;-142.34;29.29
12951;BME280;6540;50.858;7.232;2023-09-18T08:41:33;51564.06;;;-142.34;29.38
12951;BME280;6540;50.858;7.232;2023-09-18T08:44:11;51551.97;;;-142.34;29.74
12951;BME280;6540;50.858;7.232;2023-09-18T08:46:40;51547.94;;;-142.34;28.81
12951;BME280;6540;50.858;7.232;2023-09-18T08:49:07;51564.06;;;-142.34;29.15
12951;BME280;6540;50.858;7.232;2023-09-18T08:51:33;51574.16;;;-142.34;28.86
12951;BME280;6540;50.858;7.232;2023-09-18T08:54:07;51511.63;;;-142.34;28.47
12951;BME280;6540;50.858;7.232;2023-09-18T08:56:42;51523.72;;;-142.34;28.90
12951;BME280;6540;50.858;7.232;2023-09-18T08:59:21;51491.44;;;-142.34;28.33
12951;BME280;6540;50.858;7.232;2023-09-18T09:02:17;51535.81;;;-142.34;28.59
12951;BME280;6540;50.858;7.232;2023-09-18T09:05:05;51556.00;;;-142.34;29.48
12951;BME280;6540;50.858;7.232;2023-09-18T09:07:31;51541.88;;;-142.34;29.35
12951;BME280;6540;50.858;7.232;2023-09-18T09:09:56;51564.06;;;-142.34;28.97
12951;BME280;6540;50.858;7.232;2023-09-18T09:15:13;51572.13;;;-142.34;29.63
12951;BME280;6540;50.858;7.232;2023-09-18T09:17:42;51549.94;;;-142.34;29.06
12951;BME280;6540;50.858;7.232;2023-09-18T09:20:17;51541.88;;;-142.34;28.96
12951;BME280;6540;50.858;7.232;2023-09-18T09:22:44;51551.97;;;-142.34;29.58
12951;BME280;6540;50.858;7.232;2023-09-18T09:25:23;51584.22;;;-142.34;29.80
12951;BME280;6540;50.858;7.232;2023-09-18T09:27:51;51586.25;;;-142.34;29.97
12951;BME280;6540;50.858;7.232;2023-09-18T09:30:22;51568.09;;;-142.34;28.96
12951;BME280;6540;50.858;7.232;2023-09-18T09:32:49;51543.88;;;-142.34;29.50
12951;BME280;6540;50.858;7.232;2023-09-18T09:35:24;51556.00;;;-142.34;29.12
12951;BME280;6540;50.858;7.232;2023-09-18T09:37:53;51543.88;;;-142.34;28.95
12951;BME280;6540;50.858;7.232;2023-09-18T09:40:20;51531.78;;;-142.34;28.61
12951;BME280;6540;50.858;7.232;2023-09-18T09:42:46;51606.44;;;-142.34;30.65
12951;BME280;6540;50.858;7.232;2023-09-18T09:45:14;51568.09;;;-142.34;29.75
12951;BME280;6540;50.858;7.232;2023-09-18T09:47:43;51521.69;;;-142.34;28.63
12951;BME280;6540;50.858;7.232;2023-09-18T09:50:13;51521.69;;;-142.34;28.44
12951;BME280;6540;50.858;7.232;2023-09-18T09:52:47;51511.63;;;-142.34;28.83
12951;BME280;6540;50.858;7.232;2023-09-18T09:58:11;51558.00;;;-142.34;29.61
12951;BME280;6540;50.858;7.232;2023-09-18T10:00:43;51529.78;;;-142.34;28.95
12951;BME280;6540;50.858;7.232;2023-09-18T10:03:11;51515.66;;;-142.34;29.35
12951;BME280;6540;50.858;7.232;2023-09-18T10:05:41;51495.47;;;-142.34;28.26
12951;BME280;6540;50.858;7.232;2023-09-18T10:08:14;51507.59;;;-142.34;28.61
12951;BME280;6540;50.858;7.232;2023-09-18T10:10:49;51487.41;;;-142.34;28.64
12951;BME280;6540;50.858;7.232;2023-09-18T10:13:32;51471.28;;;-142.34;28.56
12951;BME280;6540;50.858;7.232;2023-09-18T10:16:00;51457.16;;;-142.34;28.21
12951;BME280;6540;50.858;7.232;2023-09-18T10:18:41;51527.75;;;-142.34;29.26
12951;BME280;6540;50.858;7.232;2023-09-18T10:21:23;51535.81;;;-142.34;28.96
12951;BME280;6540;50.858;7.232;2023-09-18T10:24:07;51553.97;;;-142.34;29.11
12951;BME280;6540;50.858;7.232;2023-09-18T10:26:41;51495.47;;;-142.34;28.58
12951;BME280;6540;50.858;7.232;2023-09-18T10:29:13;51543.88;;;-142.34;28.59
12951;BME280;6540;50.858;7.232;2023-09-18T10:31:39;51491.44;;;-142.34;28.43
12951;BME280;6540;50.858;7.232;2023-09-18T10:34:09;51535.81;;;-142.34;29.29
12951;BME280;6540;50.858;7.232;2023-09-18T10:36:37;51562.03;;;-142.34;29.68
12951;BME280;6540;50.858;7.232;2023-09-18T10:39:03;51588.28;;;-142.34;29.48
12951;BME280;6540;50.858;7.232;2023-09-18T10:41:33;51551.97;;;-142.34;29.51
12951;BME280;6540;50.858;7.232;2023-09-18T10:43:59;51580.19;;;-142.34;29.78
12951;BME280;6540;50.858;7.232;2023-09-18T10:46:26;51527.75;;;-142.34;29.34
12951;BME280;6540;50.858;7.232;2023-09-18T10:48:52;51517.66;;;-142.34;28.44
12951;BME280;6540;50.858;7.232;2023-09-18T10:51:23;51487.41;;;-142.34;28.36
12951;BME280;6540;50.858;7.232;2023-09-18T10:53:49;51537.84;;;-142.34;29.04
12951;BME280;6540;50.858;7.232;2023-09-18T10:56:15;51582.22;;;-142.34;29.91
12951;BME280;6540;50.858;7.232;2023-09-18T10:58:44;51503.53;;;-142.34;28.43
12951;BME280;6540;50.858;7.232;2023-09-18T11:01:13;51535.81;;;-142.34;28.53
12951;BME280;6540;50.858;7.232;2023-09-18T11:03:39;51525.75;;;-142.34;27.78
12951;BME280;6540;50.858;7.232;2023-09-18T11:06:11;51487.41;;;-142.34;28.16
12951;BME280;6540;50.858;7.232;2023-09-18T11:08:48;51430.94;;;-142.34;27.56
12951;BME280;6540;50.858;7.232;2023-09-18T11:11:17;51503.53;;;-142.34;28.88
12951;BME280;6540;50.858;7.232;2023-09-18T11:13:47;51477.31;;;-142.34;27.19
12951;BME280;6540;50.858;7.232;2023-09-18T11:19:16;51533.81;;;-142.34;28.66
12951;BME280;6540;50.858;7.232;2023-09-18T11:21:43;51545.91;;;-142.34;29.12
12951;BME280;6540;50.858;7.232;2023-09-18T11:24:17;51539.84;;;-142.34;28.41
12951;BME280;6540;50.858;7.232;2023-09-18T11:26:45;51560.03;;;-142.34;29.22
12951;BME280;6540;50.858;7.232;2023-09-18T11:29:13;51560.03;;;-142.34;29.09
12951;BME280;6540;50.858;7.232;2023-09-18T11:31:55;51543.88;;;-142.34;28.38
12951;BME280;6540;50.858;7.232;2023-09-18T11:34:29;51570.13;;;-142.34;28.37
12951;BME280;6540;50.858;7.232;2023-09-18T11:36:57;51556.00;;;-142.34;28.32
12951;BME280;6540;50.858;7.232;2023-09-18T11:42:10;51560.03;;;-142.34;28.07
12951;BME280;6540;50.858;7.232;2023-09-18T11:44:39;51568.09;;;-142.34;28.40
12951;BME280;6540;50.858;7.232;2023-09-18T11:47:18;51566.09;;;-142.34;28.47
12951;BME280;6540;50.858;7.232;2023-09-18T11:50:03;51588.28;;;-142.34;28.00
12951;BME280;6540;50.858;7.232;2023-09-18T11:52:30;51572.13;;;-142.34;28.92
12951;BME280;6540;50.858;7.232;2023-09-18T11:54:58;51564.06;;;-142.34;28.55
12951;BME280;6540;50.858;7.232;2023-09-18T11:57:24;51596.34;;;-142.34;28.32
12951;BME280;6540;50.858;7.232;2023-09-18T11:59:50;51539.84;;;-142.34;28.02
12951;BME280;6540;50.858;7.232;2023-09-18T12:02:27;51547.94;;;-142.34;27.23
12951;BME280;6540;50.858;7.232;2023-09-18T12:04:56;51572.13;;;-142.34;27.75
12951;BME280;6540;50.858;7.232;2023-09-18T12:07:22;51499.50;;;-142.34;27.26
12951;BME280;6540;50.858;7.232;2023-09-18T12:09:49;51519.69;;;-142.34;27.46
12951;BME280;6540;50.858;7.232;2023-09-18T12:12:16;51515.66;;;-142.34;27.14
12951;BME280;6540;50.858;7.232;2023-09-18T12:14:43;51493.47;;;-142.34;27.74
12951;BME280;6540;50.858;7.232;2023-09-18T12:17:15;51551.97;;;-142.34;27.45
12951;BME280;6540;50.858;7.232;2023-09-18T12:19:53;51515.66;;;-142.34;27.42
12951;BME280;6540;50.858;7.232;2023-09-18T12:22:29;51491.44;;;-142.34;26.62
12951;BME280;6540;50.858;7.232;2023-09-18T12:25:10;51543.88;;;-142.34;27.08
12951;BME280;6540;50.858;7.232;2023-09-18T12:27:36;51479.34;;;-142.34;27.06
12951;BME280;6540;50.858;7.232;2023-09-18T12:30:04;51485.41;;;-142.34;26.85
12951;BME280;6540;50.858;7.232;2023-09-18T12:32:33;51511.63;;;-142.34;27.47
12951;BME280;6540;50.858;7.232;2023-09-18T12:35:01;51519.69;;;-142.34;27.34
12951;BME280;6540;50.858;7.232;2023-09-18T12:37:26;51499.50;;;-142.34;26.81
12951;BME280;6540;50.858;7.232;2023-09-18T12:39:52;51477.31;;;-142.34;26.46
12951;BME280;6540;50.858;7.232;2023-09-18T12:42:20;51537.84;;;-142.34;27.12
12951;BME280;6540;50.858;7.232;2023-09-18T12:44:47;51507.59;;;-142.34;26.76
12951;BME280;6540;50.858;7.232;2023-09-18T12:47:19;51503.53;;;-142.34;26.66
12951;BME280;6540;50.858;7.232;2023-09-18T12:49:45;51503.53;;;-142.34;26.80
12951;BME280;6540;50.858;7.232;2023-09-18T12:52:24;51541.88;;;-142.34;26.32
12951;BME280;6540;50.858;7.232;2023-09-18T12:55:26;51566.09;;;-142.34;27.39
12951;BME280;6540;50.858;7.232;2023-09-18T12:57:54;51443.03;;;-142.34;26.34
12951;BME280;6540;50.858;7.232;2023-09-18T13:00:20;51491.44;;;-142.34;26.22
12951;BME280;6540;50.858;7.232;2023-09-18T13:02:48;51467.25;;;-142.34;26.19
12951;BME280;6540;50.858;7.232;2023-09-18T13:05:38;51463.22;;;-142.34;26.26
12951;BME280;6540;50.858;7.232;2023-09-18T13:08:04;51447.06;;;-142.34;26.18
12951;BME280;6540;50.858;7.232;2023-09-18T13:10:43;51475.31;;;-142.34;26.04
12951;BME280;6540;50.858;7.232;2023-09-18T13:13:16;51507.59;;;-142.34;26.68